createdAt,value
2022-08-14T00:01:11.623Z,100.00
2022-08-14T00:03:40.766Z,100.00
2022-08-14T00:06:14.092Z,100.00
2022-08-14T00:08:59.246Z,100.00
2022-08-14T00:11:26.796Z,100.00
2022-08-14T00:13:58.237Z,100.00
2022-08-14T00:16:41.169Z,100.00
2022-08-14T00:19:19.339Z,100.00
2022-08-14T00:21:50.759Z,100.00
2022-08-14T00:24:28.612Z,100.00
2022-08-14T00:27:02.437Z,100.00
2022-08-14T00:29:39.850Z,100.00
2022-08-14T00:32:50.271Z,100.00
2022-08-14T00:34:54.535Z,100.00
2022-08-14T00:37:23.258Z,100.00
2022-08-14T00:39:51.067Z,100.00
2022-08-14T00:42:21.188Z,100.00
2022-08-14T00:45:09.575Z,100.00
2022-08-14T00:47:44.699Z,100.00
2022-08-14T00:50:17.890Z,100.00
2022-08-14T00:52:52.215Z,100.00
2022-08-14T00:55:20.293Z,100.00
2022-08-14T00:58:11.203Z,100.00
2022-08-14T01:00:47.252Z,100.00
2022-08-14T01:03:20.081Z,100.00
2022-08-14T01:05:51.737Z,100.00
2022-08-14T01:08:51.935Z,100.00
2022-08-14T01:11:19.272Z,100.00
2022-08-14T01:13:46.612Z,100.00
2022-08-14T01:16:22.465Z,100.00
2022-08-14T01:19:33.101Z,100.00
2022-08-14T01:22:01.015Z,100.00
2022-08-14T01:24:34.283Z,100.00
2022-08-14T01:27:01.532Z,100.00
2022-08-14T01:29:59.004Z,100.00
2022-08-14T01:32:24.520Z,100.00
2022-08-14T01:35:18.770Z,100.00
2022-08-14T01:37:46.925Z,100.00
2022-08-14T01:40:25.645Z,100.00
2022-08-14T01:42:59.835Z,100.00
2022-08-14T01:45:26.245Z,100.00
2022-08-14T01:48:03.362Z,100.00
2022-08-14T01:50:30.700Z,100.00
2022-08-14T01:53:01.290Z,100.00
2022-08-14T01:55:32.475Z,100.00
2022-08-14T01:58:18.422Z,100.00
2022-08-14T02:00:47.849Z,100.00
2022-08-14T02:03:15.209Z,100.00
2022-08-14T02:05:42.313Z,100.00
2022-08-14T02:08:10.457Z,100.00
2022-08-14T02:10:46.643Z,100.00
2022-08-14T02:13:16.134Z,100.00
2022-08-14T02:15:44.074Z,100.00
2022-08-14T02:18:11.682Z,100.00
2022-08-14T02:20:38.617Z,100.00
2022-08-14T02:23:08.385Z,100.00
2022-08-14T02:25:35.568Z,100.00
2022-08-14T02:28:23.734Z,100.00
2022-08-14T02:30:48.502Z,100.00
2022-08-14T02:33:19.345Z,100.00
2022-08-14T02:35:46.734Z,100.00
2022-08-14T02:38:29.523Z,100.00
2022-08-14T02:41:00.448Z,100.00
2022-08-14T02:43:36.566Z,100.00
2022-08-14T02:46:03.500Z,100.00
2022-08-14T02:49:01.709Z,100.00
2022-08-14T02:51:22.821Z,100.00
2022-08-14T02:53:49.931Z,100.00
2022-08-14T02:56:30.675Z,100.00
2022-08-14T02:59:10.138Z,100.00
2022-08-14T03:01:43.851Z,100.00
2022-08-14T03:04:17.557Z,100.00
2022-08-14T03:07:06.014Z,100.00
2022-08-14T03:09:42.137Z,100.00
2022-08-14T03:12:31.889Z,100.00
2022-08-14T03:15:02.506Z,100.00
2022-08-14T03:17:31.912Z,100.00
2022-08-14T03:20:11.334Z,100.00
2022-08-14T03:22:41.880Z,100.00
2022-08-14T03:25:10.598Z,100.00
2022-08-14T03:27:47.868Z,100.00
2022-08-14T03:30:24.371Z,100.00
2022-08-14T03:33:04.882Z,100.00
2022-08-14T03:35:37.465Z,100.00
2022-08-14T03:39:14.042Z,100.00
2022-08-14T03:41:14.242Z,100.00
2022-08-14T03:43:41.755Z,100.00
2022-08-14T03:46:51.925Z,100.00
2022-08-14T03:48:57.427Z,100.00
2022-08-14T03:51:29.645Z,100.00
2022-08-14T03:53:57.495Z,100.00
2022-08-14T03:56:26.619Z,100.00
2022-08-14T03:58:57.629Z,100.00
2022-08-14T04:01:29.144Z,100.00
2022-08-14T04:04:06.365Z,100.00
2022-08-14T04:06:47.669Z,100.00
2022-08-14T04:09:15.255Z,100.00
2022-08-14T04:11:43.684Z,100.00
2022-08-14T04:14:10.135Z,100.00
2022-08-14T04:16:46.297Z,100.00
2022-08-14T04:19:19.885Z,100.00
2022-08-14T04:22:03.544Z,100.00
2022-08-14T04:24:37.877Z,100.00
2022-08-14T04:27:10.581Z,100.00
2022-08-14T04:29:39.079Z,100.00
2022-08-14T04:32:59.812Z,100.00
2022-08-14T04:34:55.103Z,100.00
2022-08-14T04:37:42.268Z,100.00
2022-08-14T04:40:28.459Z,100.00
2022-08-14T04:43:14.457Z,100.00
2022-08-14T04:45:44.429Z,100.00
2022-08-14T04:48:39.879Z,100.00
2022-08-14T04:51:03.416Z,100.00
2022-08-14T04:53:35.431Z,100.00
2022-08-14T04:56:06.152Z,100.00
2022-08-14T04:58:37.618Z,100.00
2022-08-14T05:01:12.888Z,100.00
2022-08-14T05:03:44.559Z,100.00
2022-08-14T05:06:35.130Z,100.00
2022-08-14T05:09:00.344Z,100.00
2022-08-14T05:11:27.343Z,100.00
2022-08-14T05:14:34.495Z,100.00
2022-08-14T05:16:42.573Z,100.00
2022-08-14T05:19:26.900Z,100.00
2022-08-14T05:22:17.476Z,100.00
2022-08-14T05:24:51.342Z,100.00
2022-08-14T05:27:22.847Z,100.00
2022-08-14T05:29:53.107Z,100.00
2022-08-14T05:32:19.773Z,100.00
2022-08-14T05:34:46.695Z,100.00
2022-08-14T05:37:15.503Z,100.00
2022-08-14T05:39:42.299Z,100.00
2022-08-14T05:42:10.029Z,100.00
2022-08-14T05:44:49.005Z,100.00
2022-08-14T05:47:16.024Z,100.00
2022-08-14T05:49:43.662Z,100.00
2022-08-14T05:52:10.600Z,100.00
2022-08-14T05:54:44.319Z,100.00
2022-08-14T05:57:10.809Z,100.00
2022-08-14T05:59:39.911Z,100.00
2022-08-14T06:02:11.387Z,100.00
2022-08-14T06:04:48.037Z,100.00
2022-08-14T06:07:16.147Z,100.00
2022-08-14T06:09:42.600Z,100.00
2022-08-14T06:12:56.060Z,100.00
2022-08-14T06:15:05.847Z,100.00
2022-08-14T06:17:55.843Z,100.00
2022-08-14T06:20:25.981Z,100.00
2022-08-14T06:22:52.391Z,100.00
2022-08-14T06:25:19.623Z,100.00
2022-08-14T06:27:49.029Z,100.00
2022-08-14T06:30:19.681Z,100.00
2022-08-14T06:32:46.665Z,100.00
2022-08-14T06:35:14.725Z,100.00
2022-08-14T06:37:51.862Z,100.00
2022-08-14T06:40:26.810Z,100.00
2022-08-14T06:43:00.207Z,100.00
2022-08-14T06:45:30.176Z,100.00
2022-08-14T06:47:58.886Z,100.00
2022-08-14T06:50:28.628Z,100.00
2022-08-14T06:52:58.287Z,100.00
2022-08-14T06:55:27.826Z,100.00
2022-08-14T06:57:56.010Z,100.00
2022-08-14T07:00:27.144Z,100.00
2022-08-14T07:03:13.334Z,100.00
2022-08-14T07:05:55.479Z,100.00
2022-08-14T07:08:28.699Z,100.00
2022-08-14T07:10:59.452Z,100.00
2022-08-14T07:13:27.537Z,100.00
2022-08-14T07:15:58.408Z,100.00
2022-08-14T07:18:28.428Z,100.00
2022-08-14T07:20:56.104Z,100.00
2022-08-14T07:23:24.173Z,100.00
2022-08-14T07:25:53.906Z,100.00
2022-08-14T07:28:29.613Z,100.00
2022-08-14T07:31:04.646Z,100.00
2022-08-14T07:33:43.670Z,100.00
2022-08-14T07:36:27.748Z,100.00
2022-08-14T07:39:00.714Z,100.00
2022-08-14T07:41:33.472Z,100.00
2022-08-14T07:44:22.416Z,100.00
2022-08-14T07:46:47.696Z,100.00
2022-08-14T07:49:15.264Z,100.00
2022-08-14T07:51:44.500Z,100.00
2022-08-14T07:54:12.054Z,100.00
2022-08-14T07:56:44.296Z,100.00
2022-08-14T07:59:16.827Z,100.00
2022-08-14T08:01:48.457Z,100.00
2022-08-14T08:04:24.308Z,100.00
2022-08-14T08:06:52.518Z,100.00
2022-08-14T08:09:24.976Z,100.00
2022-08-14T08:11:59.694Z,100.00
2022-08-14T08:14:26.877Z,100.00
2022-08-14T08:16:56.355Z,100.00
2022-08-14T08:19:23.342Z,100.00
2022-08-14T08:21:50.855Z,97.44
2022-08-14T08:24:20.742Z,95.14
2022-08-14T08:26:48.129Z,93.01
2022-08-14T08:29:25.009Z,96.00
2022-08-14T08:31:55.706Z,88.99
2022-08-14T08:34:23.722Z,84.11
2022-08-14T08:36:50.916Z,88.17
2022-08-14T08:39:30.828Z,83.28
2022-08-14T08:42:04.271Z,83.30
2022-08-14T08:44:34.288Z,77.26
2022-08-14T08:47:06.201Z,84.12
2022-08-14T08:49:43.067Z,84.19
2022-08-14T08:52:24.338Z,81.15
2022-08-14T08:54:54.892Z,77.79
2022-08-14T08:57:21.741Z,81.88
2022-08-14T08:59:48.201Z,78.12
2022-08-14T09:02:22.608Z,78.16
2022-08-14T09:05:02.076Z,74.22
2022-08-14T09:07:28.855Z,73.50
2022-08-14T09:10:00.101Z,73.39
2022-08-14T09:12:32.504Z,71.79
2022-08-14T09:15:02.171Z,72.28
2022-08-14T09:17:29.142Z,78.60
2022-08-14T09:19:55.836Z,78.71
2022-08-14T09:22:35.019Z,78.02
2022-08-14T09:25:04.504Z,79.09
2022-08-14T09:27:34.259Z,76.90
2022-08-14T09:30:01.607Z,74.93
2022-08-14T09:33:04.951Z,70.02
2022-08-14T09:35:56.875Z,74.52
2022-08-14T09:39:21.186Z,69.48
2022-08-14T09:42:33.971Z,69.96
2022-08-14T09:45:18.955Z,67.23
2022-08-14T09:47:57.289Z,66.88
2022-08-14T09:50:31.229Z,74.20
2022-08-14T09:53:17.834Z,70.19
2022-08-14T09:55:45.703Z,71.75
2022-08-14T09:58:19.909Z,71.03
2022-08-14T10:00:53.695Z,73.00
2022-08-14T10:03:34.051Z,70.12
2022-08-14T10:06:09.990Z,68.84
2022-08-14T10:08:57.913Z,73.18
2022-08-14T10:11:38.373Z,74.47
2022-08-14T10:14:35.255Z,75.32
2022-08-14T10:17:06.509Z,78.41
2022-08-14T10:19:36.549Z,75.58
2022-08-14T10:23:13.282Z,73.27
2022-08-14T10:24:57.571Z,72.88
2022-08-14T10:27:27.310Z,70.94
2022-08-14T10:29:58.054Z,68.89
2022-08-14T10:32:36.219Z,67.05
2022-08-14T10:35:15.133Z,69.08
2022-08-14T10:37:50.320Z,67.74
2022-08-14T10:40:43.799Z,72.33
2022-08-14T10:43:26.044Z,67.06
2022-08-14T10:46:03.266Z,63.42
2022-08-14T10:49:00.172Z,62.79
2022-08-14T10:51:30.275Z,62.46
2022-08-14T10:54:16.907Z,60.92
2022-08-14T10:56:55.822Z,60.00
2022-08-14T10:59:22.846Z,60.93
2022-08-14T11:01:58.724Z,70.48
2022-08-14T11:04:28.442Z,62.75
2022-08-14T11:26:51.339Z,71.69
2022-08-14T11:29:22.070Z,68.88
2022-08-14T11:31:53.446Z,69.68
2022-08-14T11:34:32.051Z,62.84
2022-08-14T11:37:21.977Z,66.03
2022-08-14T11:39:53.449Z,71.17
2022-08-14T11:42:56.577Z,71.10
2022-08-14T11:45:11.413Z,67.52
2022-08-14T11:48:13.239Z,68.65
2022-08-14T11:50:37.240Z,68.89
2022-08-14T11:53:05.559Z,65.29
2022-08-14T11:55:36.284Z,68.17
2022-08-14T11:58:09.437Z,63.67
2022-08-14T12:00:53.455Z,65.85
2022-08-14T12:03:37.444Z,62.00
2022-08-14T12:06:27.941Z,61.88
2022-08-14T12:08:56.689Z,65.94
2022-08-14T12:11:38.204Z,60.22
2022-08-14T12:14:13.462Z,55.60
2022-08-14T12:17:09.659Z,53.97
2022-08-14T12:19:53.982Z,52.08
2022-08-14T12:22:43.482Z,60.12
2022-08-14T12:25:18.839Z,62.32
2022-08-14T12:27:53.087Z,61.48
2022-08-14T12:30:43.737Z,63.82
2022-08-14T12:33:31.008Z,65.73
2022-08-14T12:36:04.513Z,65.84
2022-08-14T12:38:38.358Z,63.17
2022-08-14T12:41:20.829Z,69.02
2022-08-14T12:44:20.442Z,65.40
2022-08-14T13:02:26.053Z,75.28
2022-08-14T13:04:55.490Z,78.97
2022-08-14T13:07:21.919Z,76.19
2022-08-14T13:09:55.817Z,75.21
2022-08-14T13:12:31.934Z,75.40
2022-08-14T13:15:08.931Z,71.09
2022-08-14T13:17:51.267Z,65.82
2022-08-14T13:20:26.684Z,69.84
2022-08-14T13:22:56.337Z,79.78
2022-08-14T13:25:27.618Z,69.54
2022-08-14T13:27:57.580Z,69.59
2022-08-14T13:30:25.796Z,66.15
2022-08-14T13:32:54.505Z,62.39
2022-08-14T13:35:24.353Z,72.23
2022-08-14T13:37:52.204Z,68.35
2022-08-14T13:40:26.354Z,67.36
2022-08-14T13:42:53.997Z,67.85
2022-08-14T13:45:33.815Z,65.61
2022-08-14T13:48:27.315Z,63.32
2022-08-14T13:51:03.688Z,63.06
2022-08-14T13:53:35.020Z,63.70
2022-08-14T13:56:05.899Z,61.92
2022-08-14T13:58:35.703Z,61.89
2022-08-14T14:01:02.611Z,61.36
2022-08-14T14:03:35.186Z,61.20
2022-08-14T14:06:02.827Z,63.17
2022-08-14T14:08:46.503Z,59.80
2022-08-14T14:11:17.156Z,57.41
2022-08-14T14:13:46.497Z,58.81
2022-08-14T14:16:15.546Z,55.51
2022-08-14T14:18:55.756Z,57.69
2022-08-14T14:21:28.706Z,57.94
2022-08-14T14:23:56.316Z,57.12
2022-08-14T14:26:24.666Z,58.01
2022-08-14T14:28:56.573Z,59.54
2022-08-14T14:31:29.795Z,54.08
2022-08-14T14:34:00.447Z,53.33
2022-08-14T14:36:29.502Z,51.86
2022-08-14T14:38:58.776Z,52.60
2022-08-14T14:41:37.634Z,54.34
2022-08-14T14:44:13.705Z,49.85
2022-08-14T14:46:44.490Z,50.47
2022-08-14T14:49:14.358Z,56.41
2022-08-14T14:51:51.168Z,49.84
2022-08-14T14:54:31.015Z,47.92
2022-08-14T14:57:00.483Z,47.11
2022-08-14T14:59:30.577Z,45.98
2022-08-14T15:02:06.286Z,46.28
2022-08-14T15:04:43.723Z,45.46
2022-08-14T15:15:55.367Z,43.90
2022-08-14T15:18:36.571Z,46.30
2022-08-14T15:21:06.272Z,47.29
2022-08-14T15:23:44.092Z,48.22
2022-08-14T15:26:24.021Z,47.16
2022-08-14T15:29:04.872Z,46.89
2022-08-14T15:31:37.220Z,48.72
2022-08-14T15:34:46.111Z,51.90
2022-08-14T15:37:05.779Z,47.94
2022-08-14T15:39:35.539Z,45.35
2022-08-14T15:42:02.602Z,48.03
2022-08-14T15:44:34.207Z,46.56
2022-08-14T15:47:06.996Z,46.26
2022-08-14T15:49:36.018Z,55.20
2022-08-14T15:52:07.829Z,47.71
2022-08-14T15:54:35.006Z,46.77
2022-08-14T15:57:08.364Z,46.56
2022-08-14T16:00:11.297Z,51.42
2022-08-14T16:02:50.568Z,47.19
2022-08-14T16:05:25.374Z,51.70
2022-08-14T16:07:53.147Z,50.48
2022-08-14T16:10:30.394Z,50.44
2022-08-14T16:12:57.257Z,46.43
2022-08-14T16:15:23.711Z,48.38
2022-08-14T16:17:51.283Z,52.92
2022-08-14T16:20:42.100Z,57.56
2022-08-14T16:23:07.642Z,53.23
2022-08-14T16:25:40.536Z,57.55
2022-08-14T16:28:07.434Z,59.85
2022-08-14T16:30:34.363Z,51.16
2022-08-14T16:33:04.667Z,50.76
2022-08-14T16:35:42.720Z,51.00
2022-08-14T16:38:48.010Z,51.16
2022-08-14T16:41:21.890Z,50.71
2022-08-14T16:43:50.064Z,51.56
2022-08-14T16:46:22.361Z,52.59
2022-08-14T16:48:55.248Z,58.86
2022-08-14T16:51:24.746Z,57.31
2022-08-14T16:53:51.466Z,57.14
2022-08-14T16:56:25.556Z,54.75
2022-08-14T16:59:08.177Z,51.05
2022-08-14T17:01:35.970Z,51.97
2022-08-14T17:04:24.640Z,60.02
2022-08-14T17:06:54.834Z,56.96
2022-08-14T17:09:36.421Z,53.73
2022-08-14T17:12:33.596Z,59.99
2022-08-14T17:15:09.926Z,52.94
2022-08-14T17:17:40.096Z,60.96
2022-08-14T17:20:53.375Z,60.42
2022-08-14T17:23:01.160Z,64.08
2022-08-14T17:25:37.030Z,64.47
2022-08-14T17:28:50.165Z,59.23
2022-08-14T17:31:02.747Z,59.60
2022-08-14T17:33:40.874Z,57.56
2022-08-14T17:36:23.184Z,57.80
2022-08-14T17:39:16.528Z,57.05
2022-08-14T17:42:02.093Z,58.06
2022-08-14T17:44:45.590Z,60.71
2022-08-14T17:47:14.818Z,61.88
2022-08-14T17:49:52.297Z,62.52
2022-08-14T18:36:48.474Z,69.64
2022-08-14T18:39:34.613Z,71.46
2022-08-14T18:42:23.548Z,72.63
2022-08-14T18:44:50.573Z,74.73
2022-08-14T18:47:17.463Z,74.27
2022-08-14T18:49:52.927Z,77.68
2022-08-14T18:52:22.900Z,80.64
2022-08-14T18:54:59.100Z,82.42
2022-08-14T18:57:26.643Z,85.23
2022-08-14T18:59:53.650Z,86.48
2022-08-14T19:02:30.721Z,85.41
2022-08-14T19:04:59.824Z,89.40
2022-08-14T19:07:33.848Z,90.64
2022-08-14T19:10:07.767Z,92.49
2022-08-14T19:12:52.703Z,94.84
2022-08-14T19:15:21.321Z,94.92
2022-08-14T19:18:13.782Z,94.44
2022-08-14T19:20:56.858Z,95.65
2022-08-14T19:23:43.227Z,94.83
2022-08-14T19:26:36.224Z,98.64
2022-08-14T19:29:23.595Z,95.26
2022-08-14T19:31:55.300Z,97.41
2022-08-14T19:34:48.132Z,98.82
2022-08-14T19:37:52.382Z,100.00
2022-08-14T19:40:39.986Z,100.00
2022-08-14T19:43:09.355Z,100.00
2022-08-14T19:45:38.197Z,100.00
2022-08-14T19:48:12.389Z,100.00
2022-08-14T19:50:41.628Z,100.00
2022-08-14T19:53:17.087Z,100.00
2022-08-14T19:55:56.805Z,100.00
2022-08-14T19:58:30.246Z,100.00
2022-08-14T20:01:01.300Z,100.00
2022-08-14T20:03:59.838Z,100.00
2022-08-14T20:06:27.935Z,100.00
2022-08-14T20:11:00.608Z,100.00
2022-08-14T20:12:02.030Z,100.00
2022-08-14T20:14:36.036Z,100.00
2022-08-14T20:17:06.619Z,100.00
2022-08-14T20:19:37.973Z,100.00
2022-08-14T20:22:35.772Z,100.00
2022-08-14T20:25:11.016Z,100.00
2022-08-14T20:27:39.568Z,100.00
2022-08-14T20:30:35.143Z,100.00
2022-08-14T20:33:07.506Z,100.00
2022-08-14T20:35:48.980Z,100.00
2022-08-14T20:38:30.695Z,100.00
2022-08-14T20:41:10.710Z,100.00
2022-08-14T20:43:59.602Z,100.00
2022-08-14T20:46:38.788Z,100.00
2022-08-14T20:49:16.688Z,100.00
2022-08-14T20:51:58.829Z,100.00
2022-08-14T20:54:36.253Z,100.00
2022-08-14T20:57:09.499Z,100.00
2022-08-14T20:59:44.355Z,100.00
2022-08-14T21:02:34.195Z,100.00
2022-08-14T21:05:17.107Z,100.00
2022-08-14T21:07:51.388Z,100.00
2022-08-14T21:10:33.823Z,100.00
2022-08-14T21:13:25.984Z,100.00
2022-08-14T21:15:57.552Z,100.00
2022-08-14T21:18:34.483Z,100.00
2022-08-14T21:21:07.583Z,100.00
2022-08-14T21:23:37.242Z,100.00
2022-08-14T21:26:49.518Z,100.00
2022-08-14T21:29:11.205Z,100.00
2022-08-14T21:31:38.581Z,100.00
2022-08-14T21:34:27.383Z,100.00
2022-08-14T21:36:54.470Z,100.00
2022-08-14T21:39:22.217Z,100.00
2022-08-14T21:41:58.783Z,100.00
2022-08-14T21:44:43.027Z,100.00
2022-08-14T21:47:11.373Z,100.00
2022-08-14T21:49:38.690Z,100.00
2022-08-14T21:52:49.869Z,100.00
2022-08-14T21:54:59.581Z,100.00
2022-08-14T21:57:55.850Z,100.00
2022-08-14T22:00:35.216Z,100.00
2022-08-14T22:03:06.409Z,100.00
2022-08-14T22:05:37.514Z,100.00
2022-08-14T22:08:06.499Z,100.00
2022-08-14T22:10:34.676Z,100.00
2022-08-14T22:13:01.748Z,100.00
2022-08-14T22:15:29.827Z,100.00
2022-08-14T22:17:56.913Z,100.00
2022-08-14T22:20:28.862Z,100.00
2022-08-14T22:22:57.460Z,100.00
2022-08-14T22:25:34.137Z,100.00
2022-08-14T22:28:06.197Z,100.00
2022-08-14T22:30:37.862Z,100.00
2022-08-14T22:33:05.689Z,100.00
2022-08-14T22:35:33.337Z,100.00
2022-08-14T22:38:34.765Z,100.00
2022-08-14T22:41:07.541Z,100.00
2022-08-14T22:43:36.514Z,100.00
2022-08-14T22:46:06.203Z,100.00
2022-08-14T22:48:42.315Z,100.00
2022-08-14T22:51:09.412Z,100.00
2022-08-14T22:53:39.981Z,100.00
2022-08-14T22:56:06.459Z,100.00
2022-08-14T22:58:47.364Z,100.00
2022-08-14T23:01:22.725Z,100.00
2022-08-14T23:03:49.730Z,100.00
2022-08-14T23:07:02.150Z,100.00
2022-08-14T23:09:36.017Z,100.00
2022-08-14T23:11:54.207Z,100.00
2022-08-14T23:14:26.833Z,100.00
2022-08-14T23:16:57.685Z,100.00
2022-08-14T23:19:25.730Z,100.00
2022-08-14T23:22:00.788Z,100.00
2022-08-14T23:24:27.683Z,100.00
2022-08-14T23:26:55.609Z,100.00
2022-08-14T23:29:22.058Z,100.00
2022-08-14T23:31:49.236Z,100.00
2022-08-14T23:34:20.898Z,100.00
2022-08-14T23:36:54.235Z,100.00
2022-08-14T23:39:29.527Z,100.00
2022-08-14T23:41:58.264Z,100.00
2022-08-14T23:44:34.767Z,100.00
2022-08-14T23:47:05.677Z,100.00
2022-08-14T23:49:56.551Z,100.00
2022-08-14T23:52:50.480Z,100.00
2022-08-14T23:55:11.711Z,100.00
2022-08-14T23:57:44.168Z,100.00
